Time;durP1;ratioP1;P1;durP2;ratioP2;P2;SDS_P1;SDS_P2;PMS_P1;PMS_P2;Temp;Humidity;BMP_temperature;BMP_pressure;BME280_temperature;BME280_humidity;BME280_pressure;Samples;Min_cycle;Max_cycle;Signal;HPM_P1;HPM_P2
2021/12/06 00:01:00;;;;;;;10.15;5.88;;;3.60;99.90;;;1.80;100.00;100689.31;2568686;30;138244;-39
2021/12/06 00:03:57;;;;;;;10.00;5.13;;;3.60;99.90;;;1.78;100.00;100689.47;2566616;30;138539;-39
2021/12/06 00:06:28;;;;;;;7.53;4.97;;;3.60;99.90;;;1.77;100.00;100693.16;2566431;30;137334;-39
2021/12/06 00:08:56;;;;;;;9.48;5.32;;;3.60;99.90;;;1.76;100.00;100690.66;2569053;30;137412;-39
2021/12/06 00:11:24;;;;;;;7.15;4.97;;;3.60;99.90;;;1.76;100.00;100696.84;2568213;30;137308;-39
2021/12/06 00:13:52;;;;;;;7.38;4.75;;;3.60;99.90;;;1.74;100.00;100689.97;2568511;30;138409;-39
2021/12/06 00:16:22;;;;;;;6.47;4.30;;;3.60;99.90;;;1.72;100.00;100706.25;2568570;30;136722;-39
2021/12/06 00:18:52;;;;;;;8.23;5.05;;;3.50;99.90;;;1.71;100.00;100700.00;2567875;30;137876;-39
2021/12/06 00:21:22;;;;;;;6.93;4.35;;;3.50;99.90;;;1.69;100.00;100704.72;2567946;30;137043;-39
2021/12/06 00:23:50;;;;;;;9.07;5.45;;;3.50;99.90;;;1.67;100.00;100700.50;2567313;30;139013;-39
2021/12/06 00:26:19;;;;;;;7.30;4.90;;;3.50;99.90;;;1.70;100.00;100710.94;2566195;30;137369;-39
2021/12/06 00:28:49;;;;;;;8.10;4.43;;;3.50;99.90;;;1.71;100.00;100712.63;2566249;30;137195;-39
2021/12/06 00:31:20;;;;;;;6.43;4.45;;;3.50;99.90;;;1.71;100.00;100707.25;2568186;30;137184;-39
2021/12/06 00:33:54;;;;;;;7.05;4.22;;;3.50;99.90;;;1.66;100.00;100690.75;2569176;30;138388;-39
2021/12/06 00:36:27;;;;;;;7.43;4.47;;;3.50;99.90;;;1.69;100.00;100702.03;2567753;30;137350;-39
2021/12/06 00:38:59;;;;;;;8.68;4.80;;;3.50;99.90;;;1.66;100.00;100706.88;2567860;30;139875;-39
2021/12/06 00:41:26;;;;;;;7.53;4.50;;;3.50;99.90;;;1.65;100.00;100702.50;2566942;30;137825;-39
2021/12/06 00:43:54;;;;;;;7.47;4.68;;;3.50;99.90;;;1.64;100.00;100698.13;2568289;30;138108;-39
2021/12/06 00:46:22;;;;;;;6.57;4.15;;;3.50;99.90;;;1.63;100.00;100699.13;2567627;30;137417;-39
2021/12/06 00:48:50;;;;;;;7.45;4.88;;;3.40;99.90;;;1.61;100.00;100703.84;2567459;30;138228;-39
2021/12/06 00:51:19;;;;;;;7.82;4.80;;;3.40;99.90;;;1.60;100.00;100711.03;2566806;30;138573;-39
2021/12/06 00:53:47;;;;;;;7.78;4.95;;;3.40;99.90;;;1.54;100.00;100704.44;2563882;30;139691;-39
2021/12/06 00:56:14;;;;;;;8.73;4.40;;;3.40;99.90;;;1.57;100.00;100714.88;2567610;30;140031;-39
2021/12/06 00:58:43;;;;;;;6.25;4.03;;;3.40;99.90;;;1.56;100.00;100723.94;2569596;30;138345;-39
2021/12/06 01:01:11;;;;;;;6.93;3.88;;;3.40;99.90;;;1.56;100.00;100731.19;2565213;30;136971;-39
2021/12/06 01:03:42;;;;;;;6.97;3.90;;;3.40;99.90;;;1.54;100.00;100735.88;2567787;30;140452;-39
2021/12/06 01:06:12;;;;;;;7.05;4.60;;;3.30;99.90;;;1.53;100.00;100745.78;2567479;30;137780;-39
2021/12/06 01:08:41;;;;;;;7.70;4.53;;;3.30;99.90;;;1.54;100.00;100752.00;2566867;30;138523;-39
2021/12/06 01:11:09;;;;;;;7.32;4.03;;;3.30;99.90;;;1.54;100.00;100758.22;2565458;30;137773;-39
2021/12/06 01:13:40;;;;;;;6.50;4.13;;;3.30;99.90;;;1.53;100.00;100767.28;2567792;30;138398;-39
2021/12/06 01:16:08;;;;;;;5.85;4.32;;;3.30;99.90;;;1.52;100.00;100760.22;2567774;30;137334;-39
2021/12/06 01:18:37;;;;;;;6.30;4.32;;;3.30;99.90;;;1.50;100.00;100762.22;2567848;30;138340;-39
2021/12/06 01:23:52;;;;;;;;;;;3.30;99.90;;;1.44;100.00;100773.59;2568034;30;140592;-39
2021/12/06 01:29:44;;;;;;;6.65;3.83;;;3.20;99.90;;;1.34;100.00;100768.28;2567790;30;138512;-39
2021/12/06 01:32:26;;;;;;;5.72;3.63;;;3.20;99.90;;;1.29;100.00;100771.44;2567204;30;139009;-39
2021/12/06 01:40:11;;;;;;;7.22;4.35;;;3.10;99.90;;;1.19;100.00;100792.16;2567706;30;140319;-39
2021/12/06 01:42:39;;;;;;;5.75;3.63;;;3.00;99.90;;;1.12;100.00;100799.16;2568133;30;139687;-39
2021/12/06 01:45:09;;;;;;;5.63;3.90;;;3.00;99.90;;;1.10;100.00;100803.84;2564941;30;139814;-39
2021/12/06 01:47:40;;;;;;;6.65;4.15;;;3.00;99.90;;;1.08;100.00;100803.97;2567561;30;137445;-39
2021/12/06 01:50:24;;;;;;;7.00;4.03;;;3.00;99.90;;;1.08;100.00;100800.47;2564295;30;139982;-39
2021/12/06 01:53:02;;;;;;;6.60;3.78;;;2.90;99.90;;;1.05;100.00;100801.59;2567540;30;138574;-39
2021/12/06 01:55:36;;;;;;;6.03;3.95;;;2.90;99.90;;;1.00;100.00;100804.72;2566627;30;139791;-39
2021/12/06 01:58:07;;;;;;;6.10;3.70;;;2.90;99.90;;;0.97;100.00;100805.03;2565986;30;137989;-39
2021/12/06 02:00:51;;;;;;;6.75;3.60;;;2.90;99.90;;;0.92;100.00;100804.63;2568035;30;137278;-39
2021/12/06 02:03:27;;;;;;;5.75;3.83;;;2.80;99.90;;;0.85;100.00;100800.84;2568518;30;139231;-39
2021/12/06 02:05:55;;;;;;;7.38;4.10;;;2.70;99.90;;;0.82;100.00;100811.91;2566141;30;137870;-39
2021/12/06 02:08:25;;;;;;;7.13;3.80;;;2.70;99.90;;;0.82;100.00;100810.06;2567749;30;138773;-39
2021/12/06 02:11:01;;;;;;;6.75;4.28;;;2.70;99.90;;;0.87;100.00;100823.03;2568978;30;138320;-39
2021/12/06 02:14:02;;;;;;;5.82;3.78;;;2.70;99.90;;;0.78;100.00;100810.50;2568143;30;139150;-39
2021/12/06 02:16:29;;;;;;;6.85;3.70;;;2.70;99.90;;;0.73;100.00;100827.06;2568151;30;139023;-39
2021/12/06 02:19:03;;;;;;;5.35;3.53;;;2.60;99.90;;;0.68;100.00;100827.50;2566046;30;137395;-39
2021/12/06 02:21:36;;;;;;;5.50;3.53;;;2.50;99.90;;;0.61;100.00;100826.41;2567699;30;139709;-39
2021/12/06 02:24:09;;;;;;;6.03;3.88;;;2.50;99.90;;;0.51;100.00;100817.53;2567182;30;137836;-39
2021/12/06 02:26:43;;;;;;;5.63;3.42;;;2.40;99.90;;;0.40;100.00;100824.78;2566937;30;140678;-39
2021/12/06 02:29:13;;;;;;;5.43;3.63;;;2.30;99.90;;;0.31;100.00;100830.16;2569103;30;138079;-39
2021/12/06 02:31:41;;;;;;;6.10;3.58;;;2.20;99.90;;;0.25;100.00;100835.13;2567673;30;139947;-39
2021/12/06 02:34:09;;;;;;;6.43;3.50;;;2.20;99.90;;;0.20;100.00;100840.09;2567948;30;137395;-39
2021/12/06 02:36:37;;;;;;;6.05;3.47;;;2.10;99.90;;;0.12;100.00;100845.31;2567584;30;140338;-39
2021/12/06 02:39:09;;;;;;;5.45;3.05;;;2.10;99.90;;;0.14;100.00;100849.53;2568548;30;138488;-39
2021/12/06 02:41:38;;;;;;;4.63;2.85;;;2.00;99.90;;;0.11;100.00;100848.97;2566713;30;140612;-39
2021/12/06 02:44:09;;;;;;;5.95;3.53;;;2.00;99.90;;;0.09;100.00;100853.63;2566835;30;140295;-39
2021/12/06 02:46:36;;;;;;;7.80;3.38;;;2.00;99.90;;;0.05;100.00;100849.56;2568407;30;139243;-39
2021/12/06 02:49:04;;;;;;;6.18;3.22;;;2.00;99.90;;;0.11;100.00;100862.38;2566493;30;137066;-39
2021/12/06 02:51:32;;;;;;;5.78;3.58;;;2.00;99.90;;;0.05;100.00;100858.47;2568283;30;138781;-39
2021/12/06 02:54:00;;;;;;;;;;;2.00;99.90;;;0.15;100.00;100869.19;2568840;30;138231;-39
2021/12/06 02:56:39;;;;;;;6.35;3.40;;;2.00;99.90;;;0.17;100.00;100866.34;2566889;30;138543;-39
2021/12/06 02:59:10;;;;;;;4.75;3.10;;;2.00;99.90;;;0.16;100.00;100867.34;2568609;30;138848;-39
2021/12/06 03:01:45;;;;;;;4.90;2.80;;;2.00;99.90;;;0.16;100.00;100870.88;2568171;30;139214;-40
2021/12/06 03:04:14;;;;;;;5.82;3.30;;;2.00;99.90;;;0.14;100.00;100868.31;2568403;30;139003;-39
2021/12/06 03:06:42;;;;;;;5.07;3.28;;;2.00;99.90;;;0.17;100.00;100875.25;2568816;30;138567;-39
2021/12/06 03:09:16;;;;;;;6.72;3.83;;;2.00;99.90;;;0.18;100.00;100876.09;2568826;30;137985;-39
2021/12/06 03:11:57;;;;;;;6.18;3.83;;;2.10;99.90;;;0.16;100.00;100878.06;2566317;30;139840;-39
2021/12/06 03:14:31;;;;;;;6.50;3.92;;;2.10;99.90;;;0.11;100.00;100867.75;2566609;30;137458;-39
2021/12/06 03:17:07;;;;;;;6.80;3.60;;;2.00;99.90;;;0.07;100.00;100867.22;2567886;30;139194;-39
2021/12/06 03:19:36;;;;;;;6.20;3.60;;;2.00;99.90;;;0.03;100.00;100881.03;2567033;30;139529;-39
2021/12/06 03:22:06;;;;;;;6.43;4.05;;;1.90;99.90;;;-0.02;100.00;100873.41;2566906;30;140107;-37
2021/12/06 03:24:34;;;;;;;6.70;3.97;;;1.90;99.90;;;-0.07;100.00;100881.03;2566415;30;136879;-37
2021/12/06 03:27:02;;;;;;;7.57;3.90;;;1.90;99.90;;;-0.06;100.00;100877.38;2568602;30;138313;-38
2021/12/06 03:29:31;;;;;;;6.07;3.50;;;1.80;99.90;;;-0.13;100.00;100877.13;2568535;30;138613;-37
2021/12/06 03:31:59;;;;;;;5.70;3.58;;;1.80;99.90;;;-0.21;100.00;100885.00;2568110;30;139280;-37
2021/12/06 03:34:28;;;;;;;5.43;3.47;;;1.80;99.90;;;-0.31;100.00;100884.97;2566939;30;138864;-37
2021/12/06 03:37:01;;;;;;;5.88;3.20;;;1.70;99.90;;;-0.41;100.00;100886.81;2568259;30;140698;-38
2021/12/06 03:39:40;;;;;;;4.22;2.90;;;1.60;99.90;;;-0.54;100.00;100882.53;2567885;30;136802;-37
2021/12/06 03:42:21;;;;;;;4.97;3.38;;;1.50;99.90;;;-0.64;100.00;100881.69;2567606;30;138452;-37
2021/12/06 03:44:51;;;;;;;6.07;3.67;;;1.40;99.90;;;-0.78;100.00;100875.75;2566409;30;138509;-37
2021/12/06 03:47:28;;;;;;;5.70;3.22;;;1.30;99.90;;;-0.81;100.00;100888.56;2568252;30;140376;-37
2021/12/06 03:49:59;;;;;;;6.35;3.85;;;1.20;99.90;;;-0.86;100.00;100883.59;2567875;30;138332;-37
2021/12/06 03:52:28;;;;;;;7.30;4.32;;;1.20;99.90;;;-0.91;100.00;100893.88;2567891;30;139461;-37
2021/12/06 03:54:58;;;;;;;7.65;4.30;;;1.10;99.90;;;-0.98;100.00;100890.91;2566046;30;137504;-38
2021/12/06 03:57:26;;;;;;;7.82;4.25;;;1.00;99.90;;;-0.99;100.00;100888.38;2566381;30;139235;-37
2021/12/06 03:59:54;;;;;;;6.80;4.68;;;1.00;99.90;;;-1.01;100.00;100896.53;2568682;30;138453;-37
2021/12/06 04:02:29;;;;;;;8.13;4.20;;;1.00;99.90;;;-1.03;100.00;100890.44;2568774;30;138383;-37
2021/12/06 04:04:57;;;;;;;6.70;4.00;;;0.90;99.90;;;-1.03;100.00;100896.69;2566692;30;137765;-37
2021/12/06 04:07:29;;;;;;;7.63;3.67;;;0.90;99.90;;;-1.11;100.00;100896.47;2566993;30;138267;-37
2021/12/06 04:09:57;;;;;;;6.47;3.63;;;0.90;99.90;;;-1.20;100.00;100899.97;2567305;30;138234;-37
2021/12/06 04:12:25;;;;;;;6.35;3.67;;;0.80;99.90;;;-1.29;100.00;100898.94;2568145;30;140529;-37
2021/12/06 04:14:55;;;;;;;6.15;3.97;;;0.80;99.90;;;-1.34;100.00;100902.00;2564364;30;139817;-37
2021/12/06 04:17:22;;;;;;;6.30;3.45;;;0.70;99.90;;;-1.41;100.00;100908.88;2567873;30;140291;-37
2021/12/06 04:19:50;;;;;;;7.30;4.03;;;0.60;99.90;;;-1.50;100.00;100904.31;2567127;30;139495;-37
2021/12/06 04:22:19;;;;;;;8.63;4.22;;;0.60;99.90;;;-1.49;100.00;100911.38;2569136;30;138486;-37
2021/12/06 04:24:48;;;;;;;6.18;3.60;;;0.50;99.90;;;-1.53;100.00;100918.81;2566863;30;137206;-37
2021/12/06 04:27:18;;;;;;;7.03;3.85;;;0.50;99.90;;;-1.57;100.00;100917.38;2566613;30;139485;-37
2021/12/06 04:29:50;;;;;;;6.63;3.83;;;0.50;99.90;;;-1.62;100.00;100920.44;2565661;38;138019;-37
2021/12/06 04:32:21;;;;;;;7.22;4.10;;;0.40;99.90;;;-1.65;100.00;100917.19;2568998;30;139845;-37
2021/12/06 04:34:50;;;;;;;5.75;3.80;;;0.40;99.90;;;-1.72;100.00;100919.53;2564203;30;139015;-37
2021/12/06 04:37:17;;;;;;;5.40;3.40;;;0.30;99.90;;;-1.75;100.00;100927.81;2566261;30;138142;-38
2021/12/06 04:39:45;;;;;;;7.65;3.65;;;0.30;99.90;;;-1.79;100.00;100931.72;2567057;30;137563;-37
2021/12/06 04:42:13;;;;;;;7.88;4.35;;;0.30;99.90;;;-1.82;100.00;100937.34;2568246;30;138193;-37
2021/12/06 04:44:41;;;;;;;8.23;4.70;;;0.20;99.90;;;-1.84;100.00;100945.47;2566550;30;139773;-37
2021/12/06 04:47:10;;;;;;;8.45;4.75;;;0.20;99.90;;;-1.81;100.00;100939.03;2567284;30;140756;-37
2021/12/06 04:49:38;;;;;;;5.78;3.85;;;0.20;99.90;;;-1.81;100.00;100947.06;2567305;30;137396;-37
2021/12/06 04:52:11;;;;;;;6.53;3.80;;;0.20;99.90;;;-1.88;100.00;100942.19;2566190;30;139104;-37
2021/12/06 04:54:45;;;;;;;7.80;4.20;;;0.20;99.90;;;-1.91;100.00;100944.28;2568301;30;137644;-37
2021/12/06 04:57:30;;;;;;;5.97;3.60;;;0.10;99.90;;;-1.95;100.00;100948.22;2567721;30;140181;-37
2021/12/06 05:00:20;;;;;;;8.35;4.30;;;0.10;99.90;;;-1.97;100.00;100956.34;2568249;30;136903;-37
2021/12/06 05:02:48;;;;;;;8.52;4.63;;;0.10;99.90;;;-1.97;100.00;100955.50;2567590;30;139554;-37
2021/12/06 05:05:40;;;;;;;10.38;4.85;;;0.00;99.90;;;-1.98;100.00;100968.03;2568184;30;138777;-37
2021/12/06 05:08:26;;;;;;;7.72;4.47;;;0.10;99.90;;;-2.00;100.00;100975.31;2568535;30;139494;-37
2021/12/06 05:10:57;;;;;;;6.78;4.35;;;0.00;99.90;;;-2.05;100.00;100973.03;2568067;30;137646;-37
2021/12/06 05:13:28;;;;;;;6.57;4.03;;;0.00;99.90;;;-2.06;100.00;100973.16;2567482;30;139705;-37
2021/12/06 05:15:56;;;;;;;7.10;4.47;;;0.00;99.90;;;-2.05;100.00;100974.88;2565370;30;138619;-37
2021/12/06 05:18:26;;;;;;;9.00;5.07;;;0.00;99.90;;;-2.08;100.00;100981.31;2565954;30;138685;-37
2021/12/06 05:20:55;;;;;;;8.60;4.43;;;-0.10;99.90;;;-2.15;100.00;100981.91;2567244;30;140071;-37
2021/12/06 05:23:23;;;;;;;7.25;4.22;;;-0.10;99.90;;;-2.23;100.00;100978.06;2568233;30;139192;-37
2021/12/06 05:25:51;;;;;;;5.90;4.18;;;-0.10;99.90;;;-2.24;100.00;100983.53;2567288;30;138123;-37
2021/12/06 05:28:23;;;;;;;7.80;4.80;;;-0.20;99.90;;;-2.29;100.00;100986.59;2567408;30;139831;-37
2021/12/06 05:30:54;;;;;;;9.55;4.75;;;-0.20;99.90;;;-2.28;100.00;100996.31;2567484;30;138860;-37
2021/12/06 05:33:30;;;;;;;7.85;4.43;;;-0.20;99.90;;;-2.31;100.00;100994.72;2567485;30;140093;-37
2021/12/06 05:36:03;;;;;;;8.60;4.97;;;-0.20;99.90;;;-2.24;100.00;101010.28;2566638;30;137410;-37
2021/12/06 05:38:31;;;;;;;8.15;4.20;;;-0.20;99.90;;;-2.25;100.00;101005.91;2567781;30;138904;-37
2021/12/06 05:41:00;;;;;;;7.72;4.13;;;-0.20;99.90;;;-2.25;100.00;101001.41;2568502;30;137396;-37
2021/12/06 05:43:28;;;;;;;8.30;4.47;;;-0.20;99.90;;;-2.29;100.00;100997.28;2567592;30;138336;-37
2021/12/06 05:45:56;;;;;;;6.78;4.35;;;-0.30;99.90;;;-2.35;100.00;101001.28;2568610;30;136965;-37
2021/12/06 05:48:24;;;;;;;8.50;4.50;;;-0.30;99.90;;;-2.41;100.00;101001.78;2569122;30;137419;-37
2021/12/06 05:50:52;;;;;;;;;;;-0.30;99.90;;;-2.43;100.00;101005.53;2568286;30;138206;-37
2021/12/06 05:53:22;;;;;;;7.63;4.35;;;-0.40;99.90;;;-2.50;100.00;101000.69;2569189;30;137484;-37
2021/12/06 05:55:50;;;;;;;6.65;4.20;;;-0.40;99.90;;;-2.51;100.00;101000.84;2567296;30;136918;-37
2021/12/06 05:58:27;;;;;;;8.20;4.70;;;-0.40;99.90;;;-2.57;100.00;101004.84;2568656;30;139224;-37
2021/12/06 06:00:56;;;;;;;7.72;4.22;;;-0.50;99.90;;;-2.58;100.00;101008.47;2568762;30;136986;-37
2021/12/06 06:03:25;;;;;;;6.80;4.50;;;-0.50;99.90;;;-2.59;100.00;101009.47;2567902;30;139040;-37
2021/12/06 06:05:53;;;;;;;9.85;5.25;;;-0.50;99.90;;;-2.56;100.00;101017.22;2567651;30;137466;-37
2021/12/06 06:08:21;;;;;;;9.32;5.18;;;-0.50;99.90;;;-2.55;100.00;101028.75;2568704;30;137321;-37
2021/12/06 06:10:51;;;;;;;11.30;5.47;;;-0.50;99.90;;;-2.55;100.00;101026.94;2567474;30;137503;-37
2021/12/06 06:13:19;;;;;;;9.95;5.35;;;-0.50;99.90;;;-2.54;100.00;101035.78;2569431;30;138287;-37
2021/12/06 06:15:50;;;;;;;9.95;5.45;;;-0.50;99.90;;;-2.54;100.00;101036.66;2566737;30;137097;-37
2021/12/06 06:18:19;;;;;;;12.80;5.65;;;-0.50;99.90;;;-2.51;100.00;101036.41;2567557;30;139296;-37
2021/12/06 06:20:55;;;;;;;13.95;5.82;;;-0.50;99.90;;;-2.38;100.00;101043.47;2568123;30;137410;-37
2021/12/06 06:23:24;;;;;;;8.35;4.82;;;-0.40;99.90;;;-2.33;100.00;101043.94;2567989;30;138263;-37
2021/12/06 06:25:51;;;;;;;10.23;5.07;;;-0.40;99.90;;;-2.26;100.00;101042.47;2567601;30;137531;-37
2021/12/06 06:28:19;;;;;;;7.82;4.72;;;-0.30;99.90;;;-2.15;100.00;101051.44;2567909;30;138291;-37
2021/12/06 06:30:47;;;;;;;10.73;5.45;;;-0.20;99.90;;;-2.12;100.00;101048.50;2568153;30;137466;-37
2021/12/06 06:33:15;;;;;;;11.57;5.55;;;-0.20;99.90;;;-2.06;100.00;101048.88;2566222;30;138405;-37
2021/12/06 06:35:42;;;;;;;10.00;5.72;;;-0.20;99.90;;;-1.98;100.00;101052.78;2568874;30;138288;-37
2021/12/06 06:38:10;;;;;;;10.32;5.32;;;-0.10;99.90;;;-1.95;100.00;101049.84;2568593;30;137296;-37
2021/12/06 06:40:38;;;;;;;9.50;5.65;;;0.00;99.90;;;-1.91;100.00;101053.97;2568565;30;137650;-37
2021/12/06 06:43:05;;;;;;;8.65;5.25;;;0.00;99.90;;;-1.88;100.00;101053.72;2569359;30;138507;-37
2021/12/06 06:45:33;;;;;;;8.32;5.38;;;0.10;99.90;;;-1.84;100.00;101054.31;2567105;30;138494;-37
2021/12/06 06:48:01;;;;;;;10.30;5.78;;;0.10;99.90;;;-1.86;100.00;101041.06;2567690;30;137783;-37
2021/12/06 06:50:30;;;;;;;9.65;5.57;;;0.10;99.90;;;-1.86;100.00;101042.88;2566284;30;138263;-37
2021/12/06 06:52:57;;;;;;;;;;;0.10;99.90;;;-1.90;100.00;101035.09;2569129;30;137143;-37
2021/12/06 06:55:25;;;;;;;9.63;4.95;;;0.10;99.90;;;-1.95;100.00;101031.94;2567431;30;137485;-37
2021/12/06 06:57:53;;;;;;;;;;;0.10;99.90;;;-2.02;100.00;101026.25;2569295;30;138452;-37
2021/12/06 07:00:35;;;;;;;8.05;4.70;;;0.00;99.90;;;-2.06;100.00;101032.00;2568467;30;137205;-37
2021/12/06 07:03:07;;;;;;;7.25;4.65;;;0.00;99.90;;;-2.12;100.00;101027.13;2568770;30;138190;-37
2021/12/06 07:05:37;;;;;;;12.18;5.80;;;-0.10;99.90;;;-2.13;100.00;101020.06;2567505;30;137556;-37
2021/12/06 07:08:05;;;;;;;10.57;5.75;;;-0.10;99.90;;;-2.14;100.00;101023.72;2568249;30;138199;-37
2021/12/06 07:10:33;;;;;;;11.48;6.07;;;-0.10;99.90;;;-2.11;100.00;101028.84;2568929;30;137508;-37
2021/12/06 07:13:04;;;;;;;10.40;5.80;;;-0.10;99.90;;;-2.09;100.00;101021.56;2567441;30;137347;-37
2021/12/06 07:15:35;;;;;;;10.32;5.65;;;-0.10;99.90;;;-2.06;100.00;101021.28;2567821;30;138207;-37
2021/12/06 07:18:04;;;;;;;11.43;6.22;;;-0.10;99.90;;;-2.03;100.00;101029.06;2568682;30;138406;-37
2021/12/06 07:20:33;;;;;;;10.98;5.60;;;0.00;99.90;;;-2.04;100.00;101030.88;2567771;30;137492;-37
2021/12/06 07:23:03;;;;;;;8.77;5.57;;;0.00;99.90;;;-2.05;100.00;101033.69;2565841;30;138242;-37
2021/12/06 07:25:33;;;;;;;10.38;5.90;;;0.00;99.90;;;-2.05;100.00;101034.53;2565781;30;138271;-37
2021/12/06 07:28:05;;;;;;;9.48;5.75;;;0.00;99.90;;;-2.05;100.00;101039.03;2566451;30;139345;-37
2021/12/06 07:30:33;;;;;;;9.48;5.50;;;0.00;99.90;;;-2.15;100.00;101030.91;2568434;30;137458;-37
2021/12/06 07:33:01;;;;;;;10.40;5.68;;;-0.10;99.90;;;-2.11;100.00;101044.91;2568204;30;137280;-37
2021/12/06 07:35:29;;;;;;;11.13;5.55;;;-0.10;99.90;;;-2.13;100.00;101042.31;2567345;30;136787;-37
2021/12/06 07:38:00;;;;;;;10.25;5.82;;;-0.10;99.90;;;-2.08;100.00;101050.81;2568003;30;137541;-37
2021/12/06 07:40:29;;;;;;;10.23;6.30;;;-0.10;99.90;;;-2.06;100.00;101042.69;2567767;30;138447;-37
2021/12/06 07:42:58;;;;;;;14.05;7.32;;;-0.10;99.90;;;-1.98;100.00;101045.56;2565743;30;138712;-37
2021/12/06 07:45:26;;;;;;;11.20;6.88;;;0.00;99.90;;;-1.92;100.00;101054.94;2566952;30;137182;-37
2021/12/06 07:47:53;;;;;;;;;;;0.00;99.90;;;-1.88;100.00;101061.72;2568160;30;138168;-37
2021/12/06 07:50:22;;;;;;;8.40;5.25;;;0.10;99.90;;;-1.88;100.00;101056.38;2567845;30;137883;-37
2021/12/06 07:52:52;;;;;;;11.32;5.80;;;0.10;99.90;;;-1.90;100.00;101059.16;2566561;30;138170;-37
2021/12/06 07:55:24;;;;;;;8.95;5.45;;;0.10;99.90;;;-1.92;100.00;101055.78;2566966;30;138315;-37
2021/12/06 07:57:56;;;;;;;10.07;5.30;;;0.00;99.90;;;-1.92;100.00;101046.91;2566654;30;139898;-37
2021/12/06 08:00:27;;;;;;;9.93;5.95;;;0.10;99.90;;;-1.86;100.00;101053.56;2567628;30;137582;-37
2021/12/06 08:02:56;;;;;;;10.73;5.45;;;0.10;99.90;;;-1.82;100.00;101057.72;2567044;30;139918;-37
2021/12/06 08:05:30;;;;;;;10.48;5.93;;;0.10;99.90;;;-1.71;100.00;101055.00;2568628;30;137401;-37
2021/12/06 08:08:15;;;;;;;12.07;6.25;;;0.20;99.90;;;-1.63;100.00;101057.88;2568071;30;139012;-37
2021/12/06 08:10:48;;;;;;;9.50;5.85;;;0.20;99.90;;;-1.51;100.00;101056.00;2566475;30;138508;-37
2021/12/06 08:13:20;;;;;;;10.30;6.38;;;0.30;99.90;;;-1.45;100.00;101062.69;2567802;30;139066;-38
2021/12/06 08:15:53;;;;;;;10.65;6.15;;;0.40;99.90;;;-1.41;100.00;101058.78;2568575;30;138268;-37
2021/12/06 08:18:22;;;;;;;10.82;5.55;;;0.50;99.90;;;-1.37;100.00;101062.06;2568767;30;138244;-37
2021/12/06 08:20:51;;;;;;;10.35;5.45;;;0.50;99.90;;;-1.34;100.00;101064.47;2567925;30;137567;-37
2021/12/06 08:23:19;;;;;;;12.65;6.13;;;0.50;99.90;;;-1.27;100.00;101067.50;2567629;30;138279;-37
2021/12/06 08:25:49;;;;;;;10.95;6.45;;;0.60;99.90;;;-1.25;100.00;101069.03;2567264;30;137577;-37
2021/12/06 08:28:20;;;;;;;8.90;5.65;;;0.60;99.90;;;-1.21;100.00;101069.63;2567917;30;138171;-37
2021/12/06 08:30:47;;;;;;;10.77;6.28;;;0.60;99.90;;;-1.18;100.00;101069.38;2568375;30;137584;-37
2021/12/06 08:33:17;;;;;;;11.15;5.85;;;0.70;99.90;;;-1.16;100.00;101068.28;2566391;30;138996;-38
2021/12/06 08:35:52;;;;;;;10.88;6.03;;;0.70;99.90;;;-1.08;100.00;101080.16;2567633;30;137458;-37
2021/12/06 08:38:24;;;;;;;10.43;5.80;;;0.70;99.90;;;-1.03;100.00;101076.13;2567642;30;137927;-37
2021/12/06 08:40:54;;;;;;;10.98;5.65;;;0.80;99.90;;;-0.99;100.00;101083.91;2568182;30;137768;-37
2021/12/06 08:43:23;;;;;;;11.15;6.05;;;0.80;99.90;;;-0.99;100.00;101084.72;2568555;30;138560;-37
2021/12/06 08:46:21;;;;;;;10.70;5.90;;;0.90;99.90;;;-1.06;100.00;101075.53;2568097;30;137453;-37
2021/12/06 08:48:50;;;;;;;9.18;6.13;;;0.80;99.90;;;-1.04;100.00;101085.16;2568210;30;137110;-37
2021/12/06 08:51:48;;;;;;;10.30;6.45;;;0.80;99.90;;;-1.02;100.00;101093.03;2567713;30;137422;-37
2021/12/06 08:54:22;;;;;;;12.27;6.90;;;0.90;99.90;;;-0.91;100.00;101097.47;2567345;30;138433;-37
2021/12/06 08:56:50;;;;;;;14.55;7.15;;;0.90;99.90;;;-0.77;100.00;101093.63;2568538;30;137036;-37
2021/12/06 08:59:18;;;;;;;;;;;1.00;99.90;;;-0.62;100.00;101086.94;2567988;30;138339;-38
2021/12/06 09:01:45;;;;;;;17.45;7.47;;;1.10;99.90;;;-0.46;100.00;101083.78;2569127;30;137113;-37
2021/12/06 09:04:39;;;;;;;12.15;7.40;;;1.30;99.90;;;-0.31;100.00;101084.28;2567231;30;137299;-37
2021/12/06 09:07:12;;;;;;;15.50;8.05;;;1.40;99.90;;;-0.14;100.00;101079.25;2566849;30;138466;-38
2021/12/06 09:09:48;;;;;;;21.88;9.57;;;1.60;99.90;;;0.06;100.00;101088.22;2567518;30;137882;-37
2021/12/06 09:12:24;;;;;;;19.60;9.32;;;1.70;99.90;;;0.25;100.00;101086.53;2566537;30;138287;-37
2021/12/06 09:15:01;;;;;;;19.65;10.27;;;1.90;99.90;;;0.39;100.00;101083.47;2565272;30;138285;-37
2021/12/06 09:17:29;;;;;;;16.35;9.70;;;2.00;99.90;;;0.47;100.00;101077.41;2567289;30;137653;-37
2021/12/06 09:19:57;;;;;;;17.20;10.25;;;2.10;99.90;;;0.55;100.00;101074.03;2565700;30;138555;-37
2021/12/06 09:22:25;;;;;;;;;;;2.20;99.90;;;0.58;100.00;101054.94;2569194;30;137705;-39
2021/12/06 09:24:52;;;;;;;17.77;9.05;;;2.30;99.90;;;0.84;100.00;101065.94;2566749;30;138437;-39
2021/12/06 09:27:20;;;;;;;19.17;10.82;;;2.50;99.90;;;1.04;100.00;101067.75;2567809;30;136890;-39
2021/12/06 09:29:48;;;;;;;21.98;12.50;;;2.60;99.90;;;1.20;100.00;101076.09;2567728;30;138002;-39
2021/12/06 09:32:17;;;;;;;22.67;11.68;;;2.80;99.90;;;1.29;100.00;101072.53;2567942;30;137379;-39
2021/12/06 09:34:47;;;;;;;22.40;12.40;;;2.90;99.90;;;1.44;100.00;101078.28;2567148;30;137785;-39
2021/12/06 09:37:15;;;;;;;23.95;12.93;;;3.00;99.90;;;1.51;100.00;101061.59;2568066;30;136661;-39
2021/12/06 09:39:43;;;;;;;27.55;13.18;;;3.10;99.90;;;1.56;100.00;101073.56;2566767;30;139116;-39
2021/12/06 09:42:11;;;;;;;28.20;12.75;;;3.20;99.90;;;1.51;100.00;101075.84;2568010;30;136771;-39
2021/12/06 09:44:39;;;;;;;27.45;13.88;;;3.20;99.90;;;1.48;100.00;101078.84;2567040;30;138210;-39
2021/12/06 09:47:06;;;;;;;22.20;13.20;;;3.20;99.90;;;1.38;100.00;101068.13;2567352;30;137751;-39
2021/12/06 09:49:34;;;;;;;21.75;12.23;;;3.10;99.90;;;1.29;100.00;101072.53;2567740;30;138175;-39
2021/12/06 09:52:05;;;;;;;21.90;12.38;;;3.10;99.90;;;1.22;100.00;101087.53;2566874;30;137518;-39
2021/12/06 09:54:40;;;;;;;22.90;12.60;;;3.00;99.90;;;1.22;100.00;101082.16;2567646;30;137096;-39
2021/12/06 09:57:10;;;;;;;27.98;14.65;;;3.00;99.90;;;1.24;100.00;101085.56;2568161;30;137802;-39
2021/12/06 09:59:42;;;;;;;29.10;15.77;;;3.00;99.90;;;1.27;100.00;101093.31;2568933;30;138261;-39
2021/12/06 10:02:18;;;;;;;30.40;15.85;;;3.00;99.90;;;1.24;100.00;101082.88;2566958;30;137479;-39
2021/12/06 10:04:54;;;;;;;33.45;16.35;;;3.00;99.90;;;1.34;100.00;101082.03;2567602;30;138646;-39
2021/12/06 10:07:25;;;;;;;30.75;16.33;;;3.10;99.90;;;1.39;100.00;101106.63;2565794;30;138535;-39
2021/12/06 10:09:54;;;;;;;32.22;14.63;;;3.10;99.90;;;1.38;100.00;101095.00;2566094;30;137137;-39
2021/12/06 10:12:24;;;;;;;28.60;14.80;;;3.10;99.90;;;1.39;100.00;101094.00;2565509;30;137887;-39
2021/12/06 10:14:52;;;;;;;29.60;14.07;;;3.10;99.90;;;1.43;100.00;101091.88;2567925;30;138491;-39
2021/12/06 10:17:21;;;;;;;30.25;15.40;;;3.10;99.90;;;1.42;100.00;101085.66;2567364;30;137125;-39
2021/12/06 10:19:49;;;;;;;31.00;14.68;;;3.20;99.90;;;1.46;100.00;101086.22;2566649;30;139194;-38
2021/12/06 10:22:18;;;;;;;40.40;14.38;;;3.20;99.90;;;1.41;100.00;101081.25;2568090;30;137885;-39
2021/12/06 10:24:56;;;;;;;29.40;15.00;;;3.10;99.90;;;1.39;100.00;101079.72;2567501;30;138390;-39
2021/12/06 10:27:26;;;;;;;30.17;14.45;;;3.10;99.90;;;1.37;100.00;101085.25;2568777;30;138279;-39
2021/12/06 10:30:07;;;;;;;28.27;14.73;;;3.10;99.90;;;1.32;100.00;101089.34;2568310;30;137066;-39
2021/12/06 10:32:39;;;;;;;27.38;14.32;;;3.10;99.90;;;1.26;100.00;101070.13;2568253;30;137585;-39